sensor_id;sensor_type;location;lat;lon;timestamp;pressure;altitude;pressure_sealevel;temperature;humidity
62201;BME280;48197;42.732;27.192;2023-04-26T00:00:00;98784.91;;;8.55;100.00
62201;BME280;48197;42.732;27.192;2023-04-26T00:02:26;98789.66;;;8.55;100.00
62201;BME280;48197;42.732;27.192;2023-04-26T00:04:53;98777.97;;;8.47;100.00
62201;BME280;48197;42.732;27.192;2023-04-26T00:07:23;98779.59;;;8.41;100.00
62201;BME280;48197;42.732;27.192;2023-04-26T00:09:50;98778.00;;;8.40;100.00
62201;BME280;48197;42.732;27.192;2023-04-26T00:12:17;98775.66;;;8.42;100.00
62201;BME280;48197;42.732;27.192;2023-04-26T00:14:44;98776.06;;;8.41;100.00
62201;BME280;48197;42.732;27.192;2023-04-26T00:17:11;98776.13;;;8.33;100.00
62201;BME280;48197;42.732;27.192;2023-04-26T00:19:37;98771.84;;;8.29;100.00
62201;BME280;48197;42.732;27.192;2023-04-26T00:22:04;98777.72;;;8.31;100.00
62201;BME280;48197;42.732;27.192;2023-04-26T00:24:31;98779.59;;;8.37;100.00
62201;BME280;48197;42.732;27.192;2023-04-26T00:26:58;98776.41;;;8.43;100.00
62201;BME280;48197;42.732;27.192;2023-04-26T00:29:25;98772.75;;;8.53;100.00
62201;BME280;48197;42.732;27.192;2023-04-26T00:31:52;98771.09;;;8.59;100.00
62201;BME280;48197;42.732;27.192;2023-04-26T00:34:19;98764.44;;;8.56;100.00
62201;BME280;48197;42.732;27.192;2023-04-26T00:36:46;98765.59;;;8.59;100.00
62201;BME280;48197;42.732;27.192;2023-04-26T00:39:13;98771.50;;;8.57;100.00
62201;BME280;48197;42.732;27.192;2023-04-26T00:41:39;98764.56;;;8.49;100.00
62201;BME280;48197;42.732;27.192;2023-04-26T00:44:05;98762.28;;;8.41;100.00
62201;BME280;48197;42.732;27.192;2023-04-26T00:46:32;98759.22;;;8.31;100.00
62201;BME280;48197;42.732;27.192;2023-04-26T00:48:59;98759.75;;;8.19;100.00
62201;BME280;48197;42.732;27.192;2023-04-26T00:51:25;98755.63;;;8.04;100.00
62201;BME280;48197;42.732;27.192;2023-04-26T00:53:53;98754.16;;;7.95;100.00
62201;BME280;48197;42.732;27.192;2023-04-26T00:56:18;98753.28;;;8.02;100.00
62201;BME280;48197;42.732;27.192;2023-04-26T00:58:47;98755.47;;;8.18;100.00
62201;BME280;48197;42.732;27.192;2023-04-26T01:01:14;98750.69;;;8.22;100.00
62201;BME280;48197;42.732;27.192;2023-04-26T01:03:41;98748.25;;;8.28;100.00
62201;BME280;48197;42.732;27.192;2023-04-26T01:06:09;98750.16;;;8.34;100.00
62201;BME280;48197;42.732;27.192;2023-04-26T01:08:36;98752.44;;;8.43;100.00
62201;BME280;48197;42.732;27.192;2023-04-26T01:11:03;98750.34;;;8.51;100.00
62201;BME280;48197;42.732;27.192;2023-04-26T01:13:30;98745.06;;;8.64;100.00
62201;BME280;48197;42.732;27.192;2023-04-26T01:15:57;98754.75;;;8.75;100.00
62201;BME280;48197;42.732;27.192;2023-04-26T01:18:24;98755.78;;;8.85;100.00
62201;BME280;48197;42.732;27.192;2023-04-26T01:20:51;98751.34;;;8.91;100.00
62201;BME280;48197;42.732;27.192;2023-04-26T01:23:18;98749.28;;;8.99;100.00
62201;BME280;48197;42.732;27.192;2023-04-26T01:25:44;98751.16;;;9.06;100.00
62201;BME280;48197;42.732;27.192;2023-04-26T01:28:11;98755.41;;;9.10;100.00
62201;BME280;48197;42.732;27.192;2023-04-26T01:30:38;98754.94;;;9.15;100.00
62201;BME280;48197;42.732;27.192;2023-04-26T01:33:05;98750.56;;;9.18;100.00
62201;BME280;48197;42.732;27.192;2023-04-26T01:35:32;98746.97;;;9.21;100.00
62201;BME280;48197;42.732;27.192;2023-04-26T01:37:58;98748.91;;;9.24;100.00
62201;BME280;48197;42.732;27.192;2023-04-26T01:40:25;98748.44;;;9.26;100.00
62201;BME280;48197;42.732;27.192;2023-04-26T01:42:52;98749.63;;;9.28;100.00
62201;BME280;48197;42.732;27.192;2023-04-26T01:45:18;98739.72;;;9.31;100.00
62201;BME280;48197;42.732;27.192;2023-04-26T01:47:45;98739.63;;;9.34;100.00
62201;BME280;48197;42.732;27.192;2023-04-26T01:50:11;98734.94;;;9.35;100.00
62201;BME280;48197;42.732;27.192;2023-04-26T01:52:38;98730.97;;;9.36;100.00
62201;BME280;48197;42.732;27.192;2023-04-26T01:55:04;98728.16;;;9.39;100.00
62201;BME280;48197;42.732;27.192;2023-04-26T01:57:32;98717.06;;;9.43;100.00
62201;BME280;48197;42.732;27.192;2023-04-26T01:59:58;98714.22;;;9.47;100.00
62201;BME280;48197;42.732;27.192;2023-04-26T02:02:27;98709.78;;;9.53;100.00
62201;BME280;48197;42.732;27.192;2023-04-26T02:04:54;98710.91;;;9.55;100.00
62201;BME280;48197;42.732;27.192;2023-04-26T02:07:20;98710.19;;;9.51;100.00
62201;BME280;48197;42.732;27.192;2023-04-26T02:09:46;98697.66;;;9.47;100.00
62201;BME280;48197;42.732;27.192;2023-04-26T02:12:13;98704.47;;;9.42;100.00
62201;BME280;48197;42.732;27.192;2023-04-26T02:14:39;98707.25;;;9.38;100.00
62201;BME280;48197;42.732;27.192;2023-04-26T02:17:06;98706.13;;;9.36;100.00
62201;BME280;48197;42.732;27.192;2023-04-26T02:19:34;98712.50;;;9.33;100.00
62201;BME280;48197;42.732;27.192;2023-04-26T02:22:00;98715.25;;;9.33;100.00
62201;BME280;48197;42.732;27.192;2023-04-26T02:24:27;98706.19;;;9.32;100.00
62201;BME280;48197;42.732;27.192;2023-04-26T02:26:53;98703.78;;;9.34;100.00
62201;BME280;48197;42.732;27.192;2023-04-26T02:29:20;98701.88;;;9.31;100.00
62201;BME280;48197;42.732;27.192;2023-04-26T02:31:46;98700.69;;;9.32;100.00
62201;BME280;48197;42.732;27.192;2023-04-26T02:34:13;98701.03;;;9.34;100.00
62201;BME280;48197;42.732;27.192;2023-04-26T02:36:40;98691.63;;;9.32;100.00
62201;BME280;48197;42.732;27.192;2023-04-26T02:39:06;98691.75;;;9.25;100.00
62201;BME280;48197;42.732;27.192;2023-04-26T02:41:33;98690.31;;;9.16;100.00
62201;BME280;48197;42.732;27.192;2023-04-26T02:44:00;98690.88;;;9.08;100.00
62201;BME280;48197;42.732;27.192;2023-04-26T02:46:27;98699.66;;;8.99;100.00
62201;BME280;48197;42.732;27.192;2023-04-26T02:48:54;98700.97;;;8.91;100.00
62201;BME280;48197;42.732;27.192;2023-04-26T02:51:21;98695.63;;;8.80;100.00
62201;BME280;48197;42.732;27.192;2023-04-26T02:53:48;98698.03;;;8.78;100.00
62201;BME280;48197;42.732;27.192;2023-04-26T02:56:14;98697.19;;;8.81;100.00
62201;BME280;48197;42.732;27.192;2023-04-26T02:58:41;98701.19;;;8.76;100.00
62201;BME280;48197;42.732;27.192;2023-04-26T03:01:08;98703.59;;;8.74;100.00
62201;BME280;48197;42.732;27.192;2023-04-26T03:03:35;98702.00;;;8.77;100.00
62201;BME280;48197;42.732;27.192;2023-04-26T03:06:02;98701.47;;;8.86;100.00
62201;BME280;48197;42.732;27.192;2023-04-26T03:08:29;98699.78;;;8.92;100.00
62201;BME280;48197;42.732;27.192;2023-04-26T03:10:55;98695.34;;;8.98;100.00
62201;BME280;48197;42.732;27.192;2023-04-26T03:13:22;98706.72;;;9.00;100.00
62201;BME280;48197;42.732;27.192;2023-04-26T03:15:49;98710.69;;;8.99;100.00
62201;BME280;48197;42.732;27.192;2023-04-26T03:18:17;98714.63;;;8.98;100.00
62201;BME280;48197;42.732;27.192;2023-04-26T03:20:47;98715.00;;;9.00;100.00
62201;BME280;48197;42.732;27.192;2023-04-26T03:23:13;98720.41;;;9.07;100.00
62201;BME280;48197;42.732;27.192;2023-04-26T03:25:40;98715.19;;;9.13;100.00
62201;BME280;48197;42.732;27.192;2023-04-26T03:28:06;98709.97;;;9.18;100.00
62201;BME280;48197;42.732;27.192;2023-04-26T03:30:33;98720.53;;;9.24;100.00
62201;BME280;48197;42.732;27.192;2023-04-26T03:33:01;98717.31;;;9.29;100.00
62201;BME280;48197;42.732;27.192;2023-04-26T03:35:27;98724.72;;;9.32;100.00
62201;BME280;48197;42.732;27.192;2023-04-26T03:37:53;98713.63;;;9.35;100.00
62201;BME280;48197;42.732;27.192;2023-04-26T03:40:20;98725.38;;;9.39;100.00
62201;BME280;48197;42.732;27.192;2023-04-26T03:42:47;98719.81;;;9.43;100.00
62201;BME280;48197;42.732;27.192;2023-04-26T03:45:13;98726.38;;;9.49;100.00
62201;BME280;48197;42.732;27.192;2023-04-26T03:47:40;98724.69;;;9.55;100.00
62201;BME280;48197;42.732;27.192;2023-04-26T03:50:07;98734.47;;;9.60;100.00
62201;BME280;48197;42.732;27.192;2023-04-26T03:52:33;98727.75;;;9.61;100.00
62201;BME280;48197;42.732;27.192;2023-04-26T03:55:00;98739.56;;;9.61;100.00
62201;BME280;48197;42.732;27.192;2023-04-26T03:57:27;98736.81;;;9.61;100.00
62201;BME280;48197;42.732;27.192;2023-04-26T03:59:53;98739.22;;;9.59;100.00
62201;BME280;48197;42.732;27.192;2023-04-26T04:02:20;98742.06;;;9.56;100.00
62201;BME280;48197;42.732;27.192;2023-04-26T04:04:47;98746.84;;;9.52;100.00
62201;BME280;48197;42.732;27.192;2023-04-26T04:07:13;98742.94;;;9.49;100.00
62201;BME280;48197;42.732;27.192;2023-04-26T04:09:40;98744.16;;;9.48;100.00
62201;BME280;48197;42.732;27.192;2023-04-26T04:12:07;98748.03;;;9.51;100.00
62201;BME280;48197;42.732;27.192;2023-04-26T04:14:34;98735.72;;;9.55;100.00
62201;BME280;48197;42.732;27.192;2023-04-26T04:17:01;98739.97;;;9.60;100.00
62201;BME280;48197;42.732;27.192;2023-04-26T04:19:28;98744.63;;;9.67;100.00
62201;BME280;48197;42.732;27.192;2023-04-26T04:21:55;98749.22;;;9.73;100.00
62201;BME280;48197;42.732;27.192;2023-04-26T04:24:22;98749.44;;;9.82;100.00
62201;BME280;48197;42.732;27.192;2023-04-26T04:26:49;98747.75;;;9.89;100.00
62201;BME280;48197;42.732;27.192;2023-04-26T04:29:15;98750.38;;;9.96;100.00
62201;BME280;48197;42.732;27.192;2023-04-26T04:31:42;98751.50;;;9.98;100.00
62201;BME280;48197;42.732;27.192;2023-04-26T04:34:09;98750.25;;;10.03;100.00
62201;BME280;48197;42.732;27.192;2023-04-26T04:36:36;98748.25;;;10.04;100.00
62201;BME280;48197;42.732;27.192;2023-04-26T04:39:04;98752.19;;;10.02;100.00
62201;BME280;48197;42.732;27.192;2023-04-26T04:41:38;98751.38;;;10.06;100.00
62201;BME280;48197;42.732;27.192;2023-04-26T04:44:06;98755.56;;;10.14;100.00
62201;BME280;48197;42.732;27.192;2023-04-26T04:46:32;98765.75;;;10.17;100.00
62201;BME280;48197;42.732;27.192;2023-04-26T04:48:59;98764.09;;;10.19;100.00
62201;BME280;48197;42.732;27.192;2023-04-26T04:51:27;98762.41;;;10.26;100.00
62201;BME280;48197;42.732;27.192;2023-04-26T04:53:54;98759.28;;;10.23;100.00
62201;BME280;48197;42.732;27.192;2023-04-26T04:56:21;98768.50;;;10.37;100.00
62201;BME280;48197;42.732;27.192;2023-04-26T04:58:48;98769.97;;;10.61;100.00
62201;BME280;48197;42.732;27.192;2023-04-26T05:01:15;98762.84;;;10.80;100.00
62201;BME280;48197;42.732;27.192;2023-04-26T05:03:42;98761.75;;;10.94;100.00
62201;BME280;48197;42.732;27.192;2023-04-26T05:06:09;98754.50;;;11.00;100.00
62201;BME280;48197;42.732;27.192;2023-04-26T05:08:37;98758.31;;;11.07;100.00
62201;BME280;48197;42.732;27.192;2023-04-26T05:11:04;98762.28;;;11.06;100.00
62201;BME280;48197;42.732;27.192;2023-04-26T05:13:30;98760.72;;;11.04;100.00
62201;BME280;48197;42.732;27.192;2023-04-26T05:15:57;98758.66;;;11.09;100.00
62201;BME280;48197;42.732;27.192;2023-04-26T05:18:24;98759.69;;;11.15;100.00
62201;BME280;48197;42.732;27.192;2023-04-26T05:20:51;98761.25;;;11.16;100.00
62201;BME280;48197;42.732;27.192;2023-04-26T05:23:19;98758.56;;;11.12;100.00
62201;BME280;48197;42.732;27.192;2023-04-26T05:25:46;98757.19;;;11.04;100.00
62201;BME280;48197;42.732;27.192;2023-04-26T05:28:13;98755.78;;;10.96;100.00
62201;BME280;48197;42.732;27.192;2023-04-26T05:30:40;98755.97;;;10.89;100.00
62201;BME280;48197;42.732;27.192;2023-04-26T05:33:07;98761.56;;;10.85;100.00
62201;BME280;48197;42.732;27.192;2023-04-26T05:35:35;98767.44;;;10.87;100.00
62201;BME280;48197;42.732;27.192;2023-04-26T05:38:02;98758.72;;;10.89;100.00
62201;BME280;48197;42.732;27.192;2023-04-26T05:40:29;98769.09;;;10.85;100.00
62201;BME280;48197;42.732;27.192;2023-04-26T05:42:57;98762.00;;;10.83;100.00
62201;BME280;48197;42.732;27.192;2023-04-26T05:45:24;98778.56;;;10.83;100.00
62201;BME280;48197;42.732;27.192;2023-04-26T05:47:51;98777.72;;;10.87;100.00
62201;BME280;48197;42.732;27.192;2023-04-26T05:50:18;98774.97;;;10.87;100.00
62201;BME280;48197;42.732;27.192;2023-04-26T05:52:45;98780.72;;;10.76;100.00
62201;BME280;48197;42.732;27.192;2023-04-26T05:55:12;98785.22;;;10.70;100.00
62201;BME280;48197;42.732;27.192;2023-04-26T05:57:39;98786.91;;;10.63;100.00
62201;BME280;48197;42.732;27.192;2023-04-26T06:00:07;98783.81;;;10.61;100.00
62201;BME280;48197;42.732;27.192;2023-04-26T06:02:37;98789.25;;;10.65;100.00
62201;BME280;48197;42.732;27.192;2023-04-26T06:05:04;98791.16;;;10.68;100.00
62201;BME280;48197;42.732;27.192;2023-04-26T06:07:32;98792.22;;;10.74;100.00
62201;BME280;48197;42.732;27.192;2023-04-26T06:09:59;98795.69;;;10.78;100.00
62201;BME280;48197;42.732;27.192;2023-04-26T06:12:27;98796.72;;;10.85;100.00
62201;BME280;48197;42.732;27.192;2023-04-26T06:14:54;98787.56;;;10.88;100.00
62201;BME280;48197;42.732;27.192;2023-04-26T06:17:21;98792.50;;;10.96;100.00
62201;BME280;48197;42.732;27.192;2023-04-26T06:19:48;98791.91;;;11.05;100.00
62201;BME280;48197;42.732;27.192;2023-04-26T06:22:14;98802.47;;;11.10;100.00
62201;BME280;48197;42.732;27.192;2023-04-26T06:24:41;98795.38;;;11.09;100.00
62201;BME280;48197;42.732;27.192;2023-04-26T06:27:08;98795.47;;;11.06;100.00
62201;BME280;48197;42.732;27.192;2023-04-26T06:29:35;98804.78;;;10.95;100.00
62201;BME280;48197;42.732;27.192;2023-04-26T06:32:02;98806.31;;;10.80;100.00
62201;BME280;48197;42.732;27.192;2023-04-26T06:34:29;98788.38;;;10.68;100.00
62201;BME280;48197;42.732;27.192;2023-04-26T06:36:57;98793.66;;;10.62;100.00
62201;BME280;48197;42.732;27.192;2023-04-26T06:39:23;98798.59;;;10.71;100.00
62201;BME280;48197;42.732;27.192;2023-04-26T06:41:50;98803.06;;;10.65;100.00
62201;BME280;48197;42.732;27.192;2023-04-26T06:44:18;98804.91;;;10.72;100.00
62201;BME280;48197;42.732;27.192;2023-04-26T06:46:45;98799.63;;;10.77;100.00
62201;BME280;48197;42.732;27.192;2023-04-26T06:49:13;98805.72;;;10.89;100.00
62201;BME280;48197;42.732;27.192;2023-04-26T06:51:40;98807.94;;;11.14;100.00
62201;BME280;48197;42.732;27.192;2023-04-26T06:54:07;98802.91;;;11.58;100.00
62201;BME280;48197;42.732;27.192;2023-04-26T06:56:34;98813.19;;;11.90;100.00
62201;BME280;48197;42.732;27.192;2023-04-26T06:59:02;98810.81;;;12.05;100.00
62201;BME280;48197;42.732;27.192;2023-04-26T07:01:28;98810.75;;;12.09;100.00
62201;BME280;48197;42.732;27.192;2023-04-26T07:03:59;98809.56;;;12.22;100.00
62201;BME280;48197;42.732;27.192;2023-04-26T07:06:29;98803.28;;;12.35;100.00
62201;BME280;48197;42.732;27.192;2023-04-26T07:08:59;98797.72;;;12.64;100.00
62201;BME280;48197;42.732;27.192;2023-04-26T07:11:28;98801.53;;;12.96;100.00
62201;BME280;48197;42.732;27.192;2023-04-26T07:13:55;98803.19;;;13.57;100.00
62201;BME280;48197;42.732;27.192;2023-04-26T07:16:22;98802.97;;;14.43;100.00
62201;BME280;48197;42.732;27.192;2023-04-26T07:18:50;98795.00;;;14.55;100.00
62201;BME280;48197;42.732;27.192;2023-04-26T07:21:18;98801.06;;;14.84;100.00
62201;BME280;48197;42.732;27.192;2023-04-26T07:23:46;98803.00;;;14.97;100.00
62201;BME280;48197;42.732;27.192;2023-04-26T07:26:13;98791.09;;;15.46;100.00
62201;BME280;48197;42.732;27.192;2023-04-26T07:28:43;98786.88;;;15.91;100.00
62201;BME280;48197;42.732;27.192;2023-04-26T07:31:10;98786.75;;;16.92;100.00
62201;BME280;48197;42.732;27.192;2023-04-26T07:33:38;98794.16;;;17.62;100.00
62201;BME280;48197;42.732;27.192;2023-04-26T07:36:04;98786.19;;;18.77;100.00
62201;BME280;48197;42.732;27.192;2023-04-26T07:38:31;98789.00;;;20.45;100.00
62201;BME280;48197;42.732;27.192;2023-04-26T07:40:57;98785.34;;;20.59;100.00
62201;BME280;48197;42.732;27.192;2023-04-26T07:43:26;98795.66;;;20.74;100.00
62201;BME280;48197;42.732;27.192;2023-04-26T07:45:53;98791.19;;;21.19;100.00
62201;BME280;48197;42.732;27.192;2023-04-26T07:48:20;98786.78;;;21.45;100.00
62201;BME280;48197;42.732;27.192;2023-04-26T07:50:47;98789.34;;;22.02;100.00
62201;BME280;48197;42.732;27.192;2023-04-26T07:53:13;98780.53;;;21.78;100.00
62201;BME280;48197;42.732;27.192;2023-04-26T07:55:41;98792.00;;;21.26;100.00
62201;BME280;48197;42.732;27.192;2023-04-26T07:58:08;98785.38;;;21.29;100.00
62201;BME280;48197;42.732;27.192;2023-04-26T08:00:38;98791.31;;;20.47;100.00
62201;BME280;48197;42.732;27.192;2023-04-26T08:03:05;98796.47;;;19.31;100.00
62201;BME280;48197;42.732;27.192;2023-04-26T08:05:32;98792.28;;;18.31;100.00
62201;BME280;48197;42.732;27.192;2023-04-26T08:07:58;98797.81;;;18.02;100.00
62201;BME280;48197;42.732;27.192;2023-04-26T08:10:28;98791.91;;;18.00;100.00
62201;BME280;48197;42.732;27.192;2023-04-26T08:12:55;98793.41;;;17.86;100.00
62201;BME280;48197;42.732;27.192;2023-04-26T08:15:25;98789.41;;;17.78;100.00
62201;BME280;48197;42.732;27.192;2023-04-26T08:17:52;98795.00;;;17.78;100.00
62201;BME280;48197;42.732;27.192;2023-04-26T08:20:19;98792.34;;;17.83;100.00
62201;BME280;48197;42.732;27.192;2023-04-26T08:22:46;98792.59;;;17.94;100.00
62201;BME280;48197;42.732;27.192;2023-04-26T08:25:12;98792.47;;;18.57;100.00
62201;BME280;48197;42.732;27.192;2023-04-26T08:27:39;98789.00;;;19.07;100.00
62201;BME280;48197;42.732;27.192;2023-04-26T08:30:06;98782.50;;;19.51;100.00
62201;BME280;48197;42.732;27.192;2023-04-26T08:32:32;98784.78;;;19.68;100.00
62201;BME280;48197;42.732;27.192;2023-04-26T08:35:01;98780.38;;;19.82;100.00
62201;BME280;48197;42.732;27.192;2023-04-26T08:37:28;98782.63;;;20.18;100.00
62201;BME280;48197;42.732;27.192;2023-04-26T08:39:55;98785.69;;;20.21;100.00
62201;BME280;48197;42.732;27.192;2023-04-26T08:42:24;98780.94;;;20.06;100.00
62201;BME280;48197;42.732;27.192;2023-04-26T08:44:51;98783.09;;;20.43;100.00
62201;BME280;48197;42.732;27.192;2023-04-26T08:47:21;98778.72;;;20.63;100.00
62201;BME280;48197;42.732;27.192;2023-04-26T08:49:56;98778.22;;;20.38;100.00
62201;BME280;48197;42.732;27.192;2023-04-26T08:52:29;98783.38;;;19.98;100.00
62201;BME280;48197;42.732;27.192;2023-04-26T08:54:56;98774.13;;;20.13;100.00
62201;BME280;48197;42.732;27.192;2023-04-26T08:57:26;98783.94;;;20.03;100.00
62201;BME280;48197;42.732;27.192;2023-04-26T08:59:54;98785.72;;;20.00;100.00
62201;BME280;48197;42.732;27.192;2023-04-26T09:02:22;98785.00;;;20.05;100.00
62201;BME280;48197;42.732;27.192;2023-04-26T09:04:49;98785.69;;;20.21;100.00
62201;BME280;48197;42.732;27.192;2023-04-26T09:07:20;98788.00;;;20.48;100.00
62201;BME280;48197;42.732;27.192;2023-04-26T09:09:48;98781.63;;;20.48;100.00
62201;BME280;48197;42.732;27.192;2023-04-26T09:12:18;98779.63;;;20.54;100.00
62201;BME280;48197;42.732;27.192;2023-04-26T09:14:47;98788.31;;;20.04;100.00
62201;BME280;48197;42.732;27.192;2023-04-26T09:17:29;98780.66;;;19.84;100.00
62201;BME280;48197;42.732;27.192;2023-04-26T09:19:57;98779.91;;;19.83;100.00
62201;BME280;48197;42.732;27.192;2023-04-26T09:22:27;98779.09;;;20.03;100.00
62201;BME280;48197;42.732;27.192;2023-04-26T09:24:54;98782.94;;;20.26;100.00
62201;BME280;48197;42.732;27.192;2023-04-26T09:27:20;98779.53;;;20.69;100.00
62201;BME280;48197;42.732;27.192;2023-04-26T09:29:57;98771.06;;;20.89;100.00
62201;BME280;48197;42.732;27.192;2023-04-26T09:32:25;98781.69;;;21.49;100.00
62201;BME280;48197;42.732;27.192;2023-04-26T09:34:52;98779.56;;;21.81;100.00
62201;BME280;48197;42.732;27.192;2023-04-26T09:37:18;98772.22;;;22.00;100.00
62201;BME280;48197;42.732;27.192;2023-04-26T10:11:05;98761.00;;;18.77;100.00
62201;BME280;48197;42.732;27.192;2023-04-26T10:13:38;98760.81;;;18.66;100.00
62201;BME280;48197;42.732;27.192;2023-04-26T10:16:05;98759.09;;;18.39;100.00
62201;BME280;48197;42.732;27.192;2023-04-26T10:18:32;98758.97;;;18.04;100.00
62201;BME280;48197;42.732;27.192;2023-04-26T10:21:02;98760.69;;;17.77;100.00
62201;BME280;48197;42.732;27.192;2023-04-26T10:23:30;98756.38;;;17.52;100.00
62201;BME280;48197;42.732;27.192;2023-04-26T10:25:58;98758.91;;;17.41;100.00
62201;BME280;48197;42.732;27.192;2023-04-26T10:31:11;98761.78;;;16.89;100.00
62201;BME280;48197;42.732;27.192;2023-04-26T10:33:38;98764.16;;;16.72;100.00
62201;BME280;48197;42.732;27.192;2023-04-26T10:36:11;98761.66;;;16.74;100.00
62201;BME280;48197;42.732;27.192;2023-04-26T10:38:39;98763.84;;;16.79;100.00
62201;BME280;48197;42.732;27.192;2023-04-26T10:43:50;98765.63;;;17.01;100.00
62201;BME280;48197;42.732;27.192;2023-04-26T10:46:35;98757.88;;;17.05;100.00
62201;BME280;48197;42.732;27.192;2023-04-26T10:49:12;98762.41;;;17.26;100.00
62201;BME280;48197;42.732;27.192;2023-04-26T10:51:40;98762.28;;;17.45;100.00
62201;BME280;48197;42.732;27.192;2023-04-26T10:54:06;98763.03;;;17.54;100.00
62201;BME280;48197;42.732;27.192;2023-04-26T11:11:18;98771.25;;;18.36;100.00
62201;BME280;48197;42.732;27.192;2023-04-26T11:13:45;98768.28;;;18.54;100.00
62201;BME280;48197;42.732;27.192;2023-04-26T11:16:16;98766.38;;;18.07;100.00
62201;BME280;48197;42.732;27.192;2023-04-26T11:18:43;98763.00;;;17.79;100.00
62201;BME280;48197;42.732;27.192;2023-04-26T11:21:10;98764.94;;;17.97;100.00
62201;BME280;48197;42.732;27.192;2023-04-26T11:23:40;98765.78;;;17.79;100.00
62201;BME280;48197;42.732;27.192;2023-04-26T11:26:07;98760.88;;;17.49;100.00
62201;BME280;48197;42.732;27.192;2023-04-26T11:28:35;98755.03;;;17.62;100.00
62201;BME280;48197;42.732;27.192;2023-04-26T11:31:03;98748.22;;;17.87;100.00
62201;BME280;48197;42.732;27.192;2023-04-26T11:33:29;98763.25;;;18.44;100.00
62201;BME280;48197;42.732;27.192;2023-04-26T11:35:56;98745.66;;;19.03;100.00
62201;BME280;48197;42.732;27.192;2023-04-26T11:38:24;98746.22;;;19.07;100.00
62201;BME280;48197;42.732;27.192;2023-04-26T11:41:01;98754.44;;;19.10;100.00
62201;BME280;48197;42.732;27.192;2023-04-26T11:43:34;98749.66;;;19.31;100.00
62201;BME280;48197;42.732;27.192;2023-04-26T11:46:02;98760.03;;;19.66;100.00
62201;BME280;48197;42.732;27.192;2023-04-26T11:48:29;98742.72;;;20.09;100.00
62201;BME280;48197;42.732;27.192;2023-04-26T11:50:56;98745.88;;;21.44;100.00
62201;BME280;48197;42.732;27.192;2023-04-26T11:53:36;98746.47;;;22.30;100.00
62201;BME280;48197;42.732;27.192;2023-04-26T11:56:04;98746.22;;;22.28;100.00
62201;BME280;48197;42.732;27.192;2023-04-26T11:58:31;98744.31;;;21.97;100.00
62201;BME280;48197;42.732;27.192;2023-04-26T12:01:01;98746.78;;;21.72;100.00
62201;BME280;48197;42.732;27.192;2023-04-26T12:03:31;98740.00;;;22.07;100.00
62201;BME280;48197;42.732;27.192;2023-04-26T12:06:00;98750.50;;;22.18;100.00
62201;BME280;48197;42.732;27.192;2023-04-26T12:08:26;98746.06;;;21.89;100.00
62201;BME280;48197;42.732;27.192;2023-04-26T12:10:53;98752.38;;;21.24;100.00
62201;BME280;48197;42.732;27.192;2023-04-26T12:13:20;98741.47;;;20.62;100.00
62201;BME280;48197;42.732;27.192;2023-04-26T12:15:47;98740.78;;;20.73;100.00
62201;BME280;48197;42.732;27.192;2023-04-26T12:18:15;98740.84;;;20.26;100.00
62201;BME280;48197;42.732;27.192;2023-04-26T12:20:43;98748.69;;;19.96;100.00
62201;BME280;48197;42.732;27.192;2023-04-26T12:23:16;98746.78;;;19.67;100.00
62201;BME280;48197;42.732;27.192;2023-04-26T12:25:55;98745.22;;;19.25;100.00
62201;BME280;48197;42.732;27.192;2023-04-26T12:28:25;98742.38;;;19.04;100.00
62201;BME280;48197;42.732;27.192;2023-04-26T12:30:52;98740.66;;;18.62;100.00
62201;BME280;48197;42.732;27.192;2023-04-26T12:33:19;98736.13;;;18.05;100.00
62201;BME280;48197;42.732;27.192;2023-04-26T12:35:48;98729.91;;;17.62;100.00
62201;BME280;48197;42.732;27.192;2023-04-26T12:38:15;98740.47;;;17.34;100.00
62201;BME280;48197;42.732;27.192;2023-04-26T12:40:42;98731.66;;;17.02;100.00
62201;BME280;48197;42.732;27.192;2023-04-26T12:43:08;98733.44;;;16.81;100.00
62201;BME280;48197;42.732;27.192;2023-04-26T12:45:36;98739.69;;;16.67;100.00
62201;BME280;48197;42.732;27.192;2023-04-26T12:48:03;98738.19;;;16.47;100.00
62201;BME280;48197;42.732;27.192;2023-04-26T12:50:31;98736.84;;;16.24;100.00
62201;BME280;48197;42.732;27.192;2023-04-26T12:52:57;98744.47;;;15.96;100.00
62201;BME280;48197;42.732;27.192;2023-04-26T12:55:23;98722.34;;;15.83;100.00
62201;BME280;48197;42.732;27.192;2023-04-26T12:57:51;98723.69;;;15.69;100.00
62201;BME280;48197;42.732;27.192;2023-04-26T13:00:17;98721.34;;;15.59;100.00
62201;BME280;48197;42.732;27.192;2023-04-26T13:02:44;98726.59;;;15.47;100.00
62201;BME280;48197;42.732;27.192;2023-04-26T13:05:11;98723.19;;;15.43;100.00
62201;BME280;48197;42.732;27.192;2023-04-26T13:07:39;98714.22;;;15.39;100.00
62201;BME280;48197;42.732;27.192;2023-04-26T13:10:06;98715.59;;;15.35;100.00
62201;BME280;48197;42.732;27.192;2023-04-26T13:12:33;98717.13;;;15.36;100.00
62201;BME280;48197;42.732;27.192;2023-04-26T13:14:59;98726.56;;;15.38;100.00
62201;BME280;48197;42.732;27.192;2023-04-26T13:17:26;98723.06;;;15.47;100.00
62201;BME280;48197;42.732;27.192;2023-04-26T13:19:53;98718.25;;;15.47;100.00
62201;BME280;48197;42.732;27.192;2023-04-26T13:22:20;98716.88;;;15.52;100.00
62201;BME280;48197;42.732;27.192;2023-04-26T13:24:47;98718.25;;;15.66;100.00
62201;BME280;48197;42.732;27.192;2023-04-26T13:27:13;98719.06;;;15.76;100.00
62201;BME280;48197;42.732;27.192;2023-04-26T13:29:40;98728.19;;;15.95;100.00
62201;BME280;48197;42.732;27.192;2023-04-26T13:32:07;98731.75;;;15.95;100.00
62201;BME280;48197;42.732;27.192;2023-04-26T13:34:33;98733.00;;;15.85;100.00